createdAt,value
2018-04-19T00:00:12.976Z,1014.91
2018-04-19T00:00:53.463Z,1014.94
2018-04-19T00:01:34.002Z,1014.91
2018-04-19T00:02:14.567Z,1014.91
2018-04-19T00:02:55.055Z,1014.9
2018-04-19T00:03:35.547Z,1014.91
2018-04-19T00:04:16.065Z,1014.86
2018-04-19T00:04:56.547Z,1014.9
2018-04-19T00:05:37.006Z,1014.84
2018-04-19T00:06:17.485Z,1014.84
2018-04-19T00:06:58.009Z,1014.86
2018-04-19T00:07:38.519Z,1014.84
2018-04-19T00:08:18.966Z,1014.82
2018-04-19T00:08:59.523Z,1014.88
2018-04-19T00:09:39.940Z,1014.85
2018-04-19T00:10:20.439Z,1014.81
2018-04-19T00:11:00.929Z,1014.8
2018-04-19T00:11:41.399Z,1014.79
2018-04-19T00:12:21.877Z,1014.76
2018-04-19T00:13:02.387Z,1014.81
2018-04-19T00:13:42.870Z,1014.75
2018-04-19T00:14:23.352Z,1014.77
2018-04-19T00:15:03.863Z,1014.79
2018-04-19T00:15:44.317Z,1014.75
2018-04-19T00:16:24.831Z,1014.73
2018-04-19T00:17:05.342Z,1014.71
2018-04-19T00:17:45.868Z,1014.78
2018-04-19T00:18:26.373Z,1014.8
2018-04-19T00:19:06.859Z,1014.78
2018-04-19T00:19:47.345Z,1014.76
2018-04-19T00:20:27.926Z,1014.75
2018-04-19T00:21:08.400Z,1014.79
2018-04-19T00:21:48.856Z,1014.76
2018-04-19T00:22:29.364Z,1014.76
2018-04-19T00:23:09.851Z,1014.75
2018-04-19T00:23:50.318Z,1014.75
2018-04-19T00:24:30.786Z,1014.74
2018-04-19T00:25:11.271Z,1014.77
2018-04-19T00:25:51.817Z,1014.72
2018-04-19T00:26:32.249Z,1014.75
2018-04-19T00:27:12.765Z,1014.76
2018-04-19T00:27:53.232Z,1014.78
2018-04-19T00:28:33.773Z,1014.74
2018-04-19T00:29:14.235Z,1014.73
2018-04-19T00:29:54.696Z,1014.72
2018-04-19T00:30:35.211Z,1014.73
2018-04-19T00:31:15.744Z,1014.75
2018-04-19T00:31:56.213Z,1014.75
2018-04-19T00:32:36.722Z,1014.71
2018-04-19T00:33:17.206Z,1014.71
2018-04-19T00:33:57.699Z,1014.73
2018-04-19T00:34:38.187Z,1014.72
2018-04-19T00:35:18.696Z,1014.73
2018-04-19T00:35:59.173Z,1014.73
2018-04-19T00:36:39.688Z,1014.72
2018-04-19T00:37:20.178Z,1014.72
2018-04-19T00:38:00.650Z,1014.7
2018-04-19T00:38:41.175Z,1014.74
2018-04-19T00:39:21.656Z,1014.72
2018-04-19T00:40:02.187Z,1014.69
2018-04-19T00:40:42.664Z,1014.73
2018-04-19T00:41:23.126Z,1014.7
2018-04-19T00:42:03.664Z,1014.71
2018-04-19T00:42:44.120Z,1014.7
2018-04-19T00:43:24.626Z,1014.69
2018-04-19T00:44:05.180Z,1014.68
2018-04-19T00:44:45.640Z,1014.69
2018-04-19T00:45:26.113Z,1014.66
2018-04-19T00:46:06.595Z,1014.65
2018-04-19T00:46:47.109Z,1014.68
2018-04-19T00:47:27.557Z,1014.63
2018-04-19T00:48:08.158Z,1014.65
2018-04-19T00:48:49.560Z,1014.64
2018-04-19T00:49:30.082Z,1014.65
2018-04-19T00:50:10.570Z,1014.62
2018-04-19T00:50:51.027Z,1014.59
2018-04-19T00:51:31.567Z,1014.62
2018-04-19T00:52:12.009Z,1014.65
2018-04-19T00:52:52.750Z,1014.61
2018-04-19T00:53:33.227Z,1014.63
2018-04-19T00:54:13.733Z,1014.61
2018-04-19T00:54:54.253Z,1014.58
2018-04-19T00:55:34.713Z,1014.58
2018-04-19T00:56:15.199Z,1014.59
2018-04-19T00:56:55.673Z,1014.57
2018-04-19T00:57:36.189Z,1014.57
2018-04-19T00:58:16.673Z,1014.56
2018-04-19T00:58:57.150Z,1014.6
2018-04-19T00:59:37.669Z,1014.53
2018-04-19T01:00:18.140Z,1014.53
2018-04-19T01:00:58.581Z,1014.53
2018-04-19T01:01:39.115Z,1014.55
2018-04-19T01:02:19.583Z,1014.5
2018-04-19T01:03:00.106Z,1014.53
2018-04-19T01:03:40.931Z,1014.54
2018-04-19T01:04:21.322Z,1014.53
2018-04-19T01:05:01.822Z,1014.52
2018-04-19T01:05:42.346Z,1014.57
2018-04-19T01:06:22.879Z,1014.57
2018-04-19T01:07:03.343Z,1014.53
2018-04-19T01:07:43.862Z,1014.59
2018-04-19T01:08:24.309Z,1014.59
2018-04-19T01:09:04.778Z,1014.58
2018-04-19T01:09:45.365Z,1014.57
2018-04-19T01:10:25.862Z,1014.57
2018-04-19T01:11:06.327Z,1014.63
2018-04-19T01:11:46.808Z,1014.66
2018-04-19T01:12:27.316Z,1014.64
2018-04-19T01:13:07.767Z,1014.61
2018-04-19T01:13:48.251Z,1014.62
2018-04-19T01:14:28.788Z,1014.63
2018-04-19T01:15:09.246Z,1014.61
2018-04-19T01:15:49.744Z,1014.62
2018-04-19T01:16:30.216Z,1014.61
2018-04-19T01:17:10.741Z,1014.63
2018-04-19T01:17:51.217Z,1014.58
2018-04-19T01:18:31.732Z,1014.54
2018-04-19T01:19:12.146Z,1014.5
2018-04-19T01:19:52.664Z,1014.54
2018-04-19T01:20:33.129Z,1014.49
2018-04-19T01:21:13.645Z,1014.48
2018-04-19T01:21:54.149Z,1014.5
2018-04-19T01:22:34.676Z,1014.51
2018-04-19T01:23:15.186Z,1014.47
2018-04-19T01:23:55.603Z,1014.48
2018-04-19T01:24:36.275Z,1014.46
2018-04-19T01:25:16.739Z,1014.49
2018-04-19T01:25:57.252Z,1014.52
2018-04-19T01:26:37.660Z,1014.49
2018-04-19T01:27:18.146Z,1014.5
2018-04-19T01:27:58.655Z,1014.45
2018-04-19T01:28:39.143Z,1014.5
2018-04-19T01:29:19.657Z,1014.49
2018-04-19T01:30:00.151Z,1014.49
2018-04-19T01:30:40.662Z,1014.48
2018-04-19T01:31:21.139Z,1014.48
2018-04-19T01:32:01.632Z,1014.45
2018-04-19T01:32:42.141Z,1014.48
2018-04-19T01:33:22.644Z,1014.48
2018-04-19T01:34:03.129Z,1014.45
2018-04-19T01:34:43.574Z,1014.44
2018-04-19T01:35:24.049Z,1014.46
2018-04-19T01:36:04.559Z,1014.45
2018-04-19T01:36:45.017Z,1014.45
2018-04-19T01:37:25.536Z,1014.48
2018-04-19T01:38:06.427Z,1014.46
2018-04-19T01:38:46.484Z,1014.47
2018-04-19T01:39:27.008Z,1014.43
2018-04-19T01:40:07.521Z,1014.47
2018-04-19T01:40:47.946Z,1014.45
2018-04-19T01:41:28.451Z,1014.41
2018-04-19T01:42:08.984Z,1014.44
2018-04-19T01:42:49.397Z,1014.46
2018-04-19T01:43:29.901Z,1014.45
2018-04-19T01:44:10.428Z,1014.44
2018-04-19T01:44:50.919Z,1014.46
2018-04-19T01:45:31.421Z,1014.46
2018-04-19T01:46:11.914Z,1014.49
2018-04-19T01:46:52.390Z,1014.47
2018-04-19T01:47:34.820Z,1014.46
2018-04-19T01:48:15.298Z,1014.46
2018-04-19T01:48:55.815Z,1014.44
2018-04-19T01:49:36.321Z,1014.47
2018-04-19T01:50:16.813Z,1014.47
2018-04-19T01:50:57.310Z,1014.43
2018-04-19T01:51:37.908Z,1014.44
2018-04-19T01:52:18.301Z,1014.42
2018-04-19T01:52:58.778Z,1014.38
2018-04-19T01:53:39.338Z,1014.43
2018-04-19T01:54:19.826Z,1014.45
2018-04-19T01:55:00.361Z,1014.4
2018-04-19T01:55:40.863Z,1014.43
2018-04-19T01:56:21.423Z,1014.39
2018-04-19T01:57:01.996Z,1014.4
2018-04-19T01:57:43.763Z,1014.46
2018-04-19T01:59:36.958Z,1014.44
2018-04-19T02:00:17.461Z,1014.47
2018-04-19T02:00:57.961Z,1014.42
2018-04-19T02:01:38.504Z,1014.37
2018-04-19T02:02:19.016Z,1014.43
2018-04-19T02:02:59.541Z,1014.46
2018-04-19T02:03:40.024Z,1014.45
2018-04-19T02:04:20.541Z,1014.42
2018-04-19T02:05:01.021Z,1014.41
2018-04-19T02:05:41.499Z,1014.41
2018-04-19T02:06:22.144Z,1014.43
2018-04-19T02:07:02.590Z,1014.43
2018-04-19T02:07:43.094Z,1014.45
2018-04-19T02:08:23.629Z,1014.42
2018-04-19T02:09:04.119Z,1014.44
2018-04-19T02:09:44.624Z,1014.45
2018-04-19T02:10:25.122Z,1014.45
2018-04-19T02:11:05.624Z,1014.46
2018-04-19T02:11:46.117Z,1014.5
2018-04-19T02:12:26.640Z,1014.47
2018-04-19T02:13:07.169Z,1014.42
2018-04-19T02:13:47.743Z,1014.46
2018-04-19T02:14:28.289Z,1014.42
2018-04-19T02:15:08.817Z,1014.45
2018-04-19T02:15:49.246Z,1014.5
2018-04-19T02:16:29.792Z,1014.52
2018-04-19T02:17:10.229Z,1014.46
2018-04-19T02:17:50.704Z,1014.5
2018-04-19T02:18:31.256Z,1014.51
2018-04-19T02:19:11.760Z,1014.52
2018-04-19T02:19:52.238Z,1014.5
2018-04-19T02:20:32.829Z,1014.5
2018-04-19T02:21:13.310Z,1014.49
2018-04-19T02:21:53.798Z,1014.48
2018-04-19T02:22:34.264Z,1014.48
2018-04-19T02:23:14.768Z,1014.49
2018-04-19T02:23:55.263Z,1014.46
2018-04-19T02:24:35.721Z,1014.46
2018-04-19T02:25:16.270Z,1014.49
2018-04-19T02:25:56.769Z,1014.56
2018-04-19T02:26:37.315Z,1014.54
2018-04-19T02:27:17.809Z,1014.57
2018-04-19T02:27:58.305Z,1014.58
2018-04-19T02:28:38.759Z,1014.5
2018-04-19T02:29:19.281Z,1014.51
2018-04-19T02:29:59.756Z,1014.53
2018-04-19T02:30:40.261Z,1014.54
2018-04-19T02:31:20.721Z,1014.55
2018-04-19T02:32:01.194Z,1014.51
2018-04-19T02:32:41.721Z,1014.54
2018-04-19T02:33:22.177Z,1014.55
2018-04-19T02:34:02.715Z,1014.51
2018-04-19T02:34:43.197Z,1014.54
2018-04-19T02:35:23.706Z,1014.58
2018-04-19T02:36:04.201Z,1014.54
2018-04-19T02:36:44.656Z,1014.52
2018-04-19T02:37:25.166Z,1014.57
2018-04-19T02:38:05.641Z,1014.49
2018-04-19T02:38:46.152Z,1014.54
2018-04-19T02:39:26.611Z,1014.54
2018-04-19T02:40:07.184Z,1014.49
2018-04-19T02:40:47.663Z,1014.52
2018-04-19T02:41:28.156Z,1014.46
2018-04-19T02:42:08.720Z,1014.47
2018-04-19T02:42:49.147Z,1014.46
2018-04-19T02:43:29.651Z,1014.46
2018-04-19T02:44:10.120Z,1014.48
2018-04-19T02:44:50.637Z,1014.43
2018-04-19T02:45:31.151Z,1014.43
2018-04-19T02:46:11.649Z,1014.42
2018-04-19T02:46:52.128Z,1014.42
2018-04-19T02:47:32.588Z,1014.39
2018-04-19T02:48:13.137Z,1014.42
2018-04-19T02:48:53.583Z,1014.5
2018-04-19T02:49:34.085Z,1014.48
2018-04-19T02:50:14.637Z,1014.43
2018-04-19T02:50:55.092Z,1014.46
2018-04-19T02:51:35.604Z,1014.45
2018-04-19T02:52:16.092Z,1014.46
2018-04-19T02:52:56.586Z,1014.49
2018-04-19T02:53:37.077Z,1014.46
2018-04-19T02:54:17.620Z,1014.47
2018-04-19T02:54:58.150Z,1014.45
2018-04-19T02:55:38.617Z,1014.46
2018-04-19T02:56:19.135Z,1014.47
2018-04-19T02:56:59.605Z,1014.44
2018-04-19T02:57:40.080Z,1014.41
2018-04-19T02:58:20.594Z,1014.46
2018-04-19T02:59:01.084Z,1014.44
2018-04-19T02:59:41.614Z,1014.46
2018-04-19T03:00:22.099Z,1014.49
2018-04-19T03:01:02.587Z,1014.47
2018-04-19T03:01:43.093Z,1014.5
2018-04-19T03:02:23.590Z,1014.49
2018-04-19T03:03:04.084Z,1014.47
2018-04-19T03:03:44.577Z,1014.5
2018-04-19T03:04:25.074Z,1014.47
2018-04-19T03:05:05.550Z,1014.51
2018-04-19T03:05:46.084Z,1014.47
2018-04-19T03:06:26.550Z,1014.47
2018-04-19T03:07:07.019Z,1014.47
2018-04-19T03:07:47.552Z,1014.53
2018-04-19T03:08:28.037Z,1014.53
2018-04-19T03:09:08.555Z,1014.54
2018-04-19T03:09:49.012Z,1014.51
2018-04-19T03:10:29.492Z,1014.53
2018-04-19T03:11:09.985Z,1014.49
2018-04-19T03:11:50.423Z,1014.51
2018-04-19T03:12:31.011Z,1014.53
2018-04-19T03:13:11.428Z,1014.51
2018-04-19T03:13:51.896Z,1014.49
2018-04-19T03:14:32.382Z,1014.48
2018-04-19T03:15:12.938Z,1014.43
2018-04-19T03:15:53.380Z,1014.46
2018-04-19T03:16:33.840Z,1014.51
2018-04-19T03:17:14.306Z,1014.48
2018-04-19T03:17:54.804Z,1014.48
2018-04-19T03:18:35.283Z,1014.47
2018-04-19T03:19:15.795Z,1014.45
2018-04-19T03:19:56.256Z,1014.46
2018-04-19T03:20:36.812Z,1014.44
2018-04-19T03:21:17.203Z,1014.46
2018-04-19T03:21:57.711Z,1014.44
2018-04-19T03:22:38.177Z,1014.47
2018-04-19T03:23:18.654Z,1014.53
2018-04-19T03:23:59.158Z,1014.47
2018-04-19T03:24:39.649Z,1014.48
2018-04-19T03:25:20.130Z,1014.44
2018-04-19T03:26:00.601Z,1014.44
2018-04-19T03:26:41.118Z,1014.42
2018-04-19T03:27:21.640Z,1014.42
2018-04-19T03:28:02.107Z,1014.42
2018-04-19T03:28:42.773Z,1014.43
2018-04-19T03:29:23.280Z,1014.36
2018-04-19T03:30:03.772Z,1014.43
2018-04-19T03:30:44.251Z,1014.4
2018-04-19T03:31:24.748Z,1014.39
2018-04-19T03:32:05.255Z,1014.4
2018-04-19T03:32:45.755Z,1014.4
2018-04-19T03:33:26.238Z,1014.44
2018-04-19T03:34:06.734Z,1014.45
2018-04-19T03:34:47.191Z,1014.43
2018-04-19T03:35:27.653Z,1014.45
2018-04-19T03:36:08.167Z,1014.45
2018-04-19T03:36:48.660Z,1014.43
2018-04-19T03:37:29.116Z,1014.45
2018-04-19T03:38:09.665Z,1014.48
2018-04-19T03:38:50.111Z,1014.44
2018-04-19T03:39:30.587Z,1014.41
2018-04-19T03:40:11.105Z,1014.44
2018-04-19T03:40:51.552Z,1014.43
2018-04-19T03:41:32.072Z,1014.41
2018-04-19T03:42:12.616Z,1014.39
2018-04-19T03:42:53.080Z,1014.44
2018-04-19T03:43:33.561Z,1014.45
2018-04-19T03:44:14.075Z,1014.43
2018-04-19T03:44:54.700Z,1014.39
2018-04-19T03:45:35.212Z,1014.45
2018-04-19T03:46:15.676Z,1014.4
2018-04-19T03:46:56.173Z,1014.4
2018-04-19T03:47:36.684Z,1014.38
2018-04-19T03:48:17.589Z,1014.48
2018-04-19T03:48:58.120Z,1014.44
2018-04-19T03:49:38.600Z,1014.44
2018-04-19T03:50:19.111Z,1014.39
2018-04-19T03:50:59.572Z,1014.45
2018-04-19T03:51:40.067Z,1014.4
2018-04-19T03:52:20.555Z,1014.4
2018-04-19T03:53:01.061Z,1014.4
2018-04-19T03:53:41.587Z,1014.4
2018-04-19T03:54:22.033Z,1014.41
2018-04-19T03:55:02.530Z,1014.42
2018-04-19T03:55:43.004Z,1014.38
2018-04-19T03:56:23.505Z,1014.46
2018-04-19T03:57:03.972Z,1014.41
2018-04-19T03:57:44.505Z,1014.44
2018-04-19T03:58:24.985Z,1014.41
2018-04-19T03:59:05.448Z,1014.45
2018-04-19T03:59:45.947Z,1014.42
2018-04-19T04:00:26.460Z,1014.41
2018-04-19T04:01:07.048Z,1014.43
2018-04-19T04:01:47.472Z,1014.45
2018-04-19T04:02:28.001Z,1014.46
2018-04-19T04:03:08.500Z,1014.42
2018-04-19T04:03:48.962Z,1014.45
2018-04-19T04:04:29.503Z,1014.5
2018-04-19T04:05:09.953Z,1014.5
2018-04-19T04:05:50.468Z,1014.54
2018-04-19T04:06:30.949Z,1014.47
2018-04-19T04:07:11.424Z,1014.49
2018-04-19T04:07:51.921Z,1014.49
2018-04-19T04:08:32.369Z,1014.5
2018-04-19T04:09:12.921Z,1014.49
2018-04-19T04:09:54.122Z,1014.48
2018-04-19T04:10:34.620Z,1014.5
2018-04-19T04:11:15.151Z,1014.44
2018-04-19T04:11:55.649Z,1014.49
2018-04-19T04:12:36.121Z,1014.48
2018-04-19T04:13:16.605Z,1014.49
2018-04-19T04:13:57.092Z,1014.46
2018-04-19T04:14:37.964Z,1014.47
2018-04-19T04:15:18.487Z,1014.46
2018-04-19T04:15:59.018Z,1014.47
2018-04-19T04:16:39.479Z,1014.48
2018-04-19T04:17:20.033Z,1014.5
2018-04-19T04:18:00.502Z,1014.55
2018-04-19T04:18:40.956Z,1014.54
2018-04-19T04:19:21.468Z,1014.54
2018-04-19T04:20:01.966Z,1014.56
2018-04-19T04:20:42.411Z,1014.55
2018-04-19T04:21:23.160Z,1014.51
2018-04-19T04:22:03.614Z,1014.61
2018-04-19T04:22:44.130Z,1014.54
2018-04-19T04:23:24.619Z,1014.58
2018-04-19T04:24:05.103Z,1014.59
2018-04-19T04:24:45.623Z,1014.52
2018-04-19T04:25:26.143Z,1014.54
2018-04-19T04:26:06.663Z,1014.51
2018-04-19T04:26:47.200Z,1014.56
2018-04-19T04:27:27.702Z,1014.52
2018-04-19T04:28:08.185Z,1014.58
2018-04-19T04:28:48.651Z,1014.59
2018-04-19T04:29:29.363Z,1014.53
2018-04-19T04:30:09.805Z,1014.56
2018-04-19T04:30:50.314Z,1014.57
2018-04-19T04:31:30.804Z,1014.52
2018-04-19T04:32:11.296Z,1014.52
2018-04-19T04:32:51.735Z,1014.51
2018-04-19T04:33:32.257Z,1014.57
2018-04-19T04:34:12.891Z,1014.53
2018-04-19T04:34:56.283Z,1014.56
2018-04-19T04:35:36.828Z,1014.56
2018-04-19T04:36:17.296Z,1014.6
2018-04-19T04:36:57.771Z,1014.56
2018-04-19T04:37:38.320Z,1014.55
2018-04-19T04:38:18.764Z,1014.55
2018-04-19T04:38:59.288Z,1014.57
2018-04-19T04:39:39.780Z,1014.56
2018-04-19T04:40:20.282Z,1014.53
2018-04-19T04:41:00.760Z,1014.56
2018-04-19T04:41:41.240Z,1014.54
2018-04-19T04:42:21.786Z,1014.55
2018-04-19T04:43:02.273Z,1014.55
2018-04-19T04:43:42.832Z,1014.5
2018-04-19T04:44:23.369Z,1014.56
2018-04-19T04:45:03.834Z,1014.55
2018-04-19T04:45:44.334Z,1014.54
2018-04-19T04:46:24.819Z,1014.55
2018-04-19T04:47:05.335Z,1014.52
2018-04-19T04:47:45.832Z,1014.56
2018-04-19T04:48:26.378Z,1014.57
2018-04-19T04:49:06.858Z,1014.56
2018-04-19T04:49:47.479Z,1014.58
2018-04-19T04:50:27.943Z,1014.56
2018-04-19T04:51:08.415Z,1014.57
2018-04-19T04:51:48.860Z,1014.62
2018-04-19T04:52:29.374Z,1014.58
2018-04-19T04:53:09.886Z,1014.58
2018-04-19T04:53:50.393Z,1014.63
2018-04-19T04:54:30.908Z,1014.65
2018-04-19T04:55:11.387Z,1014.57
2018-04-19T04:55:52.033Z,1014.62
2018-04-19T04:56:32.622Z,1014.62
2018-04-19T04:57:13.157Z,1014.62
2018-04-19T04:57:53.614Z,1014.61
2018-04-19T04:58:34.145Z,1014.6
2018-04-19T04:59:14.638Z,1014.64
2018-04-19T04:59:55.144Z,1014.63
2018-04-19T05:00:35.651Z,1014.63
2018-04-19T05:01:16.211Z,1014.62
2018-04-19T05:01:56.669Z,1014.69
2018-04-19T05:02:37.152Z,1014.63
2018-04-19T05:03:17.696Z,1014.65
2018-04-19T05:03:58.129Z,1014.64
2018-04-19T05:04:38.611Z,1014.6
2018-04-19T05:05:19.113Z,1014.65
2018-04-19T05:05:59.652Z,1014.67
2018-04-19T05:06:40.120Z,1014.67
2018-04-19T05:07:20.753Z,1014.68
2018-04-19T05:08:01.213Z,1014.67
2018-04-19T05:08:41.665Z,1014.64
2018-04-19T05:09:22.201Z,1014.65
2018-04-19T05:10:02.718Z,1014.62
2018-04-19T05:10:43.246Z,1014.64
2018-04-19T05:11:23.795Z,1014.6
2018-04-19T05:12:04.300Z,1014.62
2018-04-19T05:12:44.840Z,1014.59
2018-04-19T05:13:25.286Z,1014.64
2018-04-19T05:14:05.815Z,1014.61
2018-04-19T05:14:46.306Z,1014.61
2018-04-19T05:15:26.806Z,1014.63
2018-04-19T05:16:07.258Z,1014.61
2018-04-19T05:16:47.782Z,1014.63
2018-04-19T05:17:28.260Z,1014.63
2018-04-19T05:18:08.702Z,1014.64
2018-04-19T05:18:49.250Z,1014.65
2018-04-19T05:19:29.796Z,1014.66
2018-04-19T05:20:10.253Z,1014.74
2018-04-19T05:20:50.716Z,1014.7
2018-04-19T05:21:31.231Z,1014.75
2018-04-19T05:22:11.773Z,1014.72
2018-04-19T05:22:52.502Z,1014.76
2018-04-19T05:23:33.129Z,1014.72
2018-04-19T05:24:13.658Z,1014.78
2018-04-19T05:24:54.109Z,1014.76
2018-04-19T05:25:34.627Z,1014.75
2018-04-19T05:26:15.226Z,1014.79
2018-04-19T05:26:55.625Z,1014.74
2018-04-19T05:29:28.353Z,1014.79
2018-04-19T05:31:23.413Z,1014.77
2018-04-19T05:32:03.968Z,1014.76
2018-04-19T05:32:44.472Z,1014.73
2018-04-19T05:33:25.090Z,1014.81
2018-04-19T05:34:05.501Z,1014.78
2018-04-19T05:34:45.989Z,1014.78
2018-04-19T05:35:26.887Z,1014.83
2018-04-19T05:36:07.358Z,1014.84
2018-04-19T05:36:47.812Z,1014.85
2018-04-19T05:37:28.298Z,1014.84
2018-04-19T05:38:08.766Z,1014.88
2018-04-19T05:38:49.309Z,1014.89
2018-04-19T05:39:29.792Z,1014.87
2018-04-19T05:40:10.621Z,1014.85
2018-04-19T05:40:51.143Z,1014.87
2018-04-19T05:41:31.608Z,1014.9
2018-04-19T05:42:12.264Z,1014.91
2018-04-19T05:42:52.773Z,1014.92
2018-04-19T05:43:33.320Z,1014.93
2018-04-19T05:44:13.924Z,1014.96
2018-04-19T05:44:54.467Z,1014.92
2018-04-19T05:45:34.975Z,1014.85
2018-04-19T05:46:15.521Z,1014.96
2018-04-19T05:46:55.966Z,1014.95
2018-04-19T05:47:36.483Z,1014.99
2018-04-19T05:48:16.966Z,1014.89
2018-04-19T05:48:57.453Z,1014.87
2018-04-19T05:49:37.966Z,1014.89
2018-04-19T05:50:18.469Z,1014.89
2018-04-19T05:50:58.964Z,1014.92
2018-04-19T05:51:39.927Z,1014.94
2018-04-19T05:52:20.467Z,1014.88
2018-04-19T05:53:01.138Z,1014.9
2018-04-19T05:53:41.743Z,1014.87
2018-04-19T05:54:22.296Z,1014.87
2018-04-19T05:55:02.766Z,1014.87
2018-04-19T05:55:43.288Z,1014.89
2018-04-19T05:56:24.394Z,1014.86
2018-04-19T05:57:04.944Z,1014.89
2018-04-19T05:57:45.402Z,1014.92
2018-04-19T05:58:25.982Z,1014.87
2018-04-19T05:59:06.446Z,1014.91
2018-04-19T05:59:46.933Z,1014.88
2018-04-19T06:00:27.461Z,1014.91
2018-04-19T06:01:07.969Z,1014.84
2018-04-19T06:01:48.430Z,1014.87
2018-04-19T06:02:28.907Z,1014.89
2018-04-19T06:03:09.453Z,1014.86
2018-04-19T06:03:49.930Z,1014.91
2018-04-19T06:04:30.437Z,1014.88
2018-04-19T06:05:10.943Z,1014.87
2018-04-19T06:05:51.431Z,1014.92
2018-04-19T06:06:31.891Z,1014.92
2018-04-19T06:07:12.427Z,1014.92
2018-04-19T06:07:52.946Z,1014.87
2018-04-19T06:08:33.501Z,1014.84
2018-04-19T06:09:13.979Z,1014.85
2018-04-19T06:09:54.541Z,1014.91
2018-04-19T06:10:35.090Z,1014.85
2018-04-19T06:11:15.580Z,1014.91
2018-04-19T06:11:56.052Z,1014.88
2018-04-19T06:12:36.581Z,1014.83
2018-04-19T06:13:17.118Z,1014.85
2018-04-19T06:13:57.589Z,1014.82
2018-04-19T06:14:38.060Z,1014.85
2018-04-19T06:15:18.661Z,1014.86
2018-04-19T06:15:59.082Z,1014.8
2018-04-19T06:16:39.603Z,1014.78
2018-04-19T06:17:20.087Z,1014.84
2018-04-19T06:18:00.538Z,1014.87
2018-04-19T06:18:41.078Z,1014.8
2018-04-19T06:19:21.555Z,1014.79
2018-04-19T06:20:02.038Z,1014.83
2018-04-19T06:20:42.517Z,1014.86
2018-04-19T06:21:23.045Z,1014.82
2018-04-19T06:22:03.581Z,1014.8
2018-04-19T06:22:44.077Z,1014.85
2018-04-19T06:23:24.526Z,1014.79
2018-04-19T06:24:05.072Z,1014.77
2018-04-19T06:24:45.572Z,1014.83
2018-04-19T06:25:26.141Z,1014.84
2018-04-19T06:26:06.603Z,1014.82
2018-04-19T06:26:47.149Z,1014.79
2018-04-19T06:27:27.595Z,1014.84
2018-04-19T06:28:08.614Z,1014.8
2018-04-19T06:28:49.148Z,1014.81
2018-04-19T06:29:29.712Z,1014.82
2018-04-19T06:30:10.147Z,1014.82
2018-04-19T06:30:50.660Z,1014.84
2018-04-19T06:31:31.350Z,1014.77
2018-04-19T06:32:11.844Z,1014.81
2018-04-19T06:32:52.408Z,1014.79
2018-04-19T06:33:33.129Z,1014.78
2018-04-19T06:34:13.528Z,1014.79
2018-04-19T06:34:53.949Z,1014.76
2018-04-19T06:35:34.725Z,1014.78
2018-04-19T06:36:15.236Z,1014.86
2018-04-19T06:36:55.684Z,1014.74
2018-04-19T06:37:36.196Z,1014.8
2018-04-19T06:38:16.751Z,1014.81
2018-04-19T06:38:57.177Z,1014.75
2018-04-19T06:39:37.867Z,1014.79
2018-04-19T06:40:18.420Z,1014.81
2018-04-19T06:40:59.109Z,1014.79
2018-04-19T06:41:39.684Z,1014.8
2018-04-19T06:42:20.227Z,1014.77
2018-04-19T06:43:01.037Z,1014.81
2018-04-19T06:43:41.909Z,1014.82
2018-04-19T06:44:22.443Z,1014.79
2018-04-19T06:45:03.127Z,1014.81
2018-04-19T06:45:43.575Z,1014.79
2018-04-19T06:46:24.209Z,1014.78
2018-04-19T06:47:04.758Z,1014.83
2018-04-19T06:47:45.259Z,1014.84
2018-04-19T06:48:25.770Z,1014.8
2018-04-19T06:49:06.280Z,1014.75
2018-04-19T06:49:46.803Z,1014.78
2018-04-19T06:50:27.284Z,1014.77
2018-04-19T06:51:07.784Z,1014.73
2018-04-19T06:51:48.394Z,1014.74
2018-04-19T06:52:28.972Z,1014.7
2018-04-19T06:53:10.214Z,1014.68
2018-04-19T06:53:50.683Z,1014.75
2018-04-19T06:54:31.449Z,1014.69
2018-04-19T06:55:11.920Z,1014.7
2018-04-19T06:55:52.416Z,1014.7
2018-04-19T06:56:32.967Z,1014.72
2018-04-19T06:57:13.519Z,1014.73
2018-04-19T06:57:54.217Z,1014.72
2018-04-19T06:58:34.634Z,1014.75
2018-04-19T06:59:15.119Z,1014.74
2018-04-19T06:59:55.635Z,1014.73
2018-04-19T07:00:36.108Z,1014.76
2018-04-19T07:01:16.607Z,1014.77
2018-04-19T07:01:57.253Z,1014.77
2018-04-19T07:02:37.725Z,1014.77
2018-04-19T07:03:18.264Z,1014.76
2018-04-19T07:03:58.819Z,1014.68
2018-04-19T07:04:39.343Z,1014.72
2018-04-19T07:05:19.868Z,1014.72
2018-04-19T07:06:00.393Z,1014.72
2018-04-19T07:06:40.976Z,1014.72
2018-04-19T07:07:21.526Z,1014.69
2018-04-19T07:08:02.009Z,1014.68
2018-04-19T07:08:42.991Z,1014.69
2018-04-19T07:09:23.549Z,1014.67
2018-04-19T07:10:04.010Z,1014.73
2018-04-19T07:10:44.518Z,1014.73
2018-04-19T07:11:24.989Z,1014.68
2018-04-19T07:12:05.510Z,1014.71
2018-04-19T07:12:46.070Z,1014.68
2018-04-19T07:13:26.622Z,1014.71
2018-04-19T07:14:07.083Z,1014.71
2018-04-19T07:14:47.557Z,1014.71
2018-04-19T07:15:28.122Z,1014.71
2018-04-19T07:16:08.934Z,1014.67
2018-04-19T07:16:49.482Z,1014.69
2018-04-19T07:17:29.961Z,1014.67
2018-04-19T07:18:10.449Z,1014.67
2018-04-19T07:18:50.953Z,1014.68
2018-04-19T07:19:31.528Z,1014.7
2018-04-19T07:20:12.011Z,1014.7
2018-04-19T07:20:52.589Z,1014.66
2018-04-19T07:21:33.270Z,1014.73
2018-04-19T07:22:14.340Z,1014.69
2018-04-19T07:22:54.800Z,1014.7
2018-04-19T07:23:36.000Z,1014.7
2018-04-19T07:24:16.071Z,1014.67
2018-04-19T07:24:56.545Z,1014.69
2018-04-19T07:25:37.093Z,1014.67
2018-04-19T07:26:17.569Z,1014.64
2018-04-19T07:26:58.049Z,1014.64
2018-04-19T07:27:38.588Z,1014.66
2018-04-19T07:28:19.075Z,1014.71
2018-04-19T07:28:59.518Z,1014.66
2018-04-19T07:29:40.119Z,1014.61
2018-04-19T07:30:20.592Z,1014.61
2018-04-19T07:31:01.112Z,1014.64
2018-04-19T07:31:41.618Z,1014.55
2018-04-19T07:32:22.130Z,1014.61
2018-04-19T07:33:02.619Z,1014.51
2018-04-19T07:33:43.130Z,1014.62
2018-04-19T07:34:23.807Z,1014.59
2018-04-19T07:35:05.009Z,1014.54
2018-04-19T07:35:45.023Z,1014.59
2018-04-19T07:36:25.564Z,1014.55
2018-04-19T07:37:06.203Z,1014.58
2018-04-19T07:37:46.705Z,1014.57
2018-04-19T07:38:27.182Z,1014.59
2018-04-19T07:39:07.714Z,1014.57
2018-04-19T07:39:48.215Z,1014.61
2018-04-19T07:40:28.640Z,1014.6
2018-04-19T07:41:09.581Z,1014.59
2018-04-19T07:41:50.076Z,1014.6
2018-04-19T07:42:30.557Z,1014.6
2018-04-19T07:43:11.082Z,1014.57
2018-04-19T07:43:51.609Z,1014.58
2018-04-19T07:44:32.036Z,1014.59
2018-04-19T07:45:12.533Z,1014.58
2018-04-19T07:45:53.012Z,1014.58
2018-04-19T07:46:33.505Z,1014.58
2018-04-19T07:47:14.107Z,1014.57
2018-04-19T07:47:54.593Z,1014.61
2018-04-19T07:48:35.120Z,1014.61
2018-04-19T07:49:15.563Z,1014.62
2018-04-19T07:49:56.093Z,1014.59
2018-04-19T07:50:36.628Z,1014.56
2018-04-19T07:51:17.095Z,1014.55
2018-04-19T07:51:57.652Z,1014.55
2018-04-19T07:52:38.193Z,1014.61
2018-04-19T07:53:18.928Z,1014.58
2018-04-19T07:53:59.690Z,1014.58
2018-04-19T07:54:40.342Z,1014.55
2018-04-19T07:55:20.790Z,1014.56
2018-04-19T07:56:01.369Z,1014.58
2018-04-19T07:56:41.850Z,1014.57
2018-04-19T07:57:22.334Z,1014.55
2018-04-19T07:58:02.839Z,1014.57
2018-04-19T07:58:43.283Z,1014.56
2018-04-19T07:59:23.838Z,1014.52
2018-04-19T08:00:04.417Z,1014.52
2018-04-19T08:00:44.820Z,1014.55
2018-04-19T08:01:25.383Z,1014.54
2018-04-19T08:02:05.876Z,1014.57
2018-04-19T08:02:46.360Z,1014.51
2018-04-19T08:03:27.038Z,1014.52
2018-04-19T08:04:07.673Z,1014.52
2018-04-19T08:04:48.117Z,1014.56
2018-04-19T08:05:28.587Z,1014.56
2018-04-19T08:06:09.980Z,1014.52
2018-04-19T08:06:50.190Z,1014.52
2018-04-19T08:07:30.608Z,1014.53
2018-04-19T08:08:11.185Z,1014.49
2018-04-19T08:08:51.817Z,1014.49
2018-04-19T08:09:32.319Z,1014.52
2018-04-19T08:10:12.837Z,1014.49
2018-04-19T08:10:53.281Z,1014.49
2018-04-19T08:11:33.758Z,1014.48
2018-04-19T08:12:14.286Z,1014.49
2018-04-19T08:12:54.979Z,1014.48
2018-04-19T08:13:35.482Z,1014.49
2018-04-19T08:14:15.969Z,1014.52
2018-04-19T08:14:56.416Z,1014.46
2018-04-19T08:15:36.960Z,1014.52